Time;durP1;ratioP1;P1;durP2;ratioP2;P2;SDS_P1;SDS_P2;PMS_P1;PMS_P2;Temp;Humidity;BMP_temperature;BMP_pressure;BME280_temperature;BME280_humidity;BME280_pressure;Samples;Min_cycle;Max_cycle;Signal;HPM_P1;HPM_P2
2021/03/25 00:01:16;;;;;;;12.60;7.18;;;;;;;;;;5148344;27;20217;-72
2021/03/25 00:03:44;;;;;;;9.50;6.65;;;;;;;;;;5135052;27;20199;-71
2021/03/25 00:06:10;;;;;;;9.30;6.38;;;;;;;;;;5135152;27;20229;-70
2021/03/25 00:08:36;;;;;;;11.23;6.30;;;;;;;;;;5135259;27;20255;-72
2021/03/25 00:11:03;;;;;;;14.20;6.07;;;;;;;;;;5135171;27;20201;-70
2021/03/25 00:13:29;;;;;;;11.25;6.43;;;;;;;;;;5135183;27;20213;-71
2021/03/25 00:15:56;;;;;;;10.73;6.10;;;;;;;;;;5134711;27;20198;-71
2021/03/25 00:18:22;;;;;;;15.38;7.20;;;;;;;;;;5134842;27;20589;-72
2021/03/25 00:20:48;;;;;;;13.10;8.07;;;;;;;;;;5138231;27;20189;-71
2021/03/25 00:23:15;;;;;;;10.43;6.50;;;;;;;;;;5137118;27;20637;-73
2021/03/25 00:25:41;;;;;;;11.68;6.75;;;;;;;;;;5134433;27;20234;-71
2021/03/25 00:28:09;;;;;;;12.70;6.75;;;;;;;;;;5137531;27;20190;-70
2021/03/25 00:30:36;;;;;;;14.57;6.82;;;;;;;;;;5135888;27;20630;-71
2021/03/25 00:33:04;;;;;;;9.90;7.35;;;;;;;;;;5134734;27;20337;-71
2021/03/25 00:35:30;;;;;;;8.85;6.22;;;;;;;;;;5134641;27;20227;-71
2021/03/25 00:37:57;;;;;;;11.88;6.68;;;;;;;;;;5135355;27;21346;-70
2021/03/25 00:40:23;;;;;;;9.40;6.70;;;;;;;;;;5154872;27;20536;-71
2021/03/25 00:42:49;;;;;;;12.90;6.10;;;;;;;;;;5155029;27;20226;-73
2021/03/25 00:45:22;;;;;;;16.92;7.00;;;;;;;;;;5154908;27;20178;-70
2021/03/25 00:47:48;;;;;;;22.55;7.20;;;;;;;;;;5154410;27;20209;-71
2021/03/25 00:50:19;;;;;;;11.45;7.05;;;;;;;;;;5155115;27;20232;-71
2021/03/25 00:52:45;;;;;;;16.10;6.68;;;;;;;;;;5154768;27;20178;-71
2021/03/25 00:55:12;;;;;;;13.38;7.97;;;;;;;;;;5155049;27;20204;-71
2021/03/25 00:57:38;;;;;;;9.88;6.65;;;;;;;;;;5154830;27;20182;-71
2021/03/25 01:00:05;;;;;;;8.40;6.50;;;;;;;;;;5154393;27;20254;-71
2021/03/25 01:02:31;;;;;;;9.40;6.93;;;;;;;;;;5154831;27;20471;-71
2021/03/25 01:04:57;;;;;;;16.67;7.38;;;;;;;;;;5140195;27;20238;-71
2021/03/25 01:07:25;;;;;;;14.20;7.10;;;;;;;;;;5134078;27;20202;-72
2021/03/25 01:09:51;;;;;;;15.68;8.07;;;;;;;;;;5134085;27;20424;-72
2021/03/25 01:12:17;;;;;;;11.70;7.00;;;;;;;;;;5151983;27;20190;-69
2021/03/25 01:14:43;;;;;;;12.40;8.15;;;;;;;;;;5154369;27;20202;-72
2021/03/25 01:17:09;;;;;;;16.98;7.05;;;;;;;;;;5154567;27;20645;-72
2021/03/25 01:19:35;;;;;;;10.63;6.70;;;;;;;;;;5154362;27;20272;-69
2021/03/25 01:22:01;;;;;;;10.07;6.88;;;;;;;;;;5154315;27;20523;-71
2021/03/25 01:24:29;;;;;;;10.75;5.97;;;;;;;;;;5154434;27;20527;-70
2021/03/25 01:26:55;;;;;;;16.67;7.55;;;;;;;;;;5154186;27;20204;-72
2021/03/25 01:29:21;;;;;;;10.90;5.60;;;;;;;;;;5154246;27;20284;-71
2021/03/25 01:31:48;;;;;;;12.70;6.85;;;;;;;;;;5142172;27;20604;-71
2021/03/25 01:34:18;;;;;;;10.93;7.28;;;;;;;;;;5133161;27;20199;-70
2021/03/25 01:36:44;;;;;;;11.13;6.20;;;;;;;;;;5133339;28;20294;-71
2021/03/25 01:39:10;;;;;;;10.93;6.90;;;;;;;;;;5133329;28;20182;-70
2021/03/25 01:41:38;;;;;;;12.93;7.97;;;;;;;;;;5133513;27;20585;-72
2021/03/25 01:44:04;;;;;;;11.70;6.82;;;;;;;;;;5133328;28;20254;-70
2021/03/25 01:46:31;;;;;;;17.08;7.53;;;;;;;;;;5133372;28;20198;-71
2021/03/25 01:48:59;;;;;;;12.13;7.20;;;;;;;;;;5133573;28;20647;-70
2021/03/25 01:51:34;;;;;;;15.05;7.47;;;;;;;;;;5133735;28;20532;-71
2021/03/25 01:54:18;;;;;;;16.17;6.78;;;;;;;;;;5133323;28;20190;-71
2021/03/25 01:57:07;;;;;;;10.65;6.93;;;;;;;;;;5148299;27;20611;-72
2021/03/25 01:59:42;;;;;;;12.32;5.80;;;;;;;;;;5156632;27;20197;-71
2021/03/25 02:02:12;;;;;;;16.60;7.72;;;;;;;;;;5158065;27;20220;-71
2021/03/25 02:04:48;;;;;;;10.25;6.75;;;;;;;;;;5158810;27;20611;-70
2021/03/25 02:07:18;;;;;;;14.23;7.38;;;;;;;;;;5158741;27;20337;-70
2021/03/25 02:09:47;;;;;;;20.77;6.85;;;;;;;;;;5158120;27;20699;-71
2021/03/25 02:12:18;;;;;;;8.90;5.88;;;;;;;;;;5158342;27;20288;-70
2021/03/25 02:14:46;;;;;;;15.10;6.80;;;;;;;;;;5158215;27;20192;-71
2021/03/25 02:17:14;;;;;;;11.25;7.30;;;;;;;;;;5158529;27;20200;-70
2021/03/25 02:19:47;;;;;;;12.75;6.45;;;;;;;;;;5157741;27;20198;-70
2021/03/25 02:22:20;;;;;;;15.93;7.68;;;;;;;;;;5157749;27;20722;-69
2021/03/25 02:24:50;;;;;;;14.82;5.40;;;;;;;;;;5157711;27;20196;-70
2021/03/25 02:27:30;;;;;;;8.60;5.93;;;;;;;;;;5158222;27;20697;-70
2021/03/25 02:29:58;;;;;;;9.38;6.25;;;;;;;;;;5158021;27;20294;-70
2021/03/25 02:32:26;;;;;;;10.32;6.15;;;;;;;;;;5158097;27;20189;-71
2021/03/25 02:34:54;;;;;;;10.90;7.40;;;;;;;;;;5158549;27;20204;-72
2021/03/25 02:37:23;;;;;;;10.35;6.80;;;;;;;;;;5157804;27;20316;-79
2021/03/25 02:39:53;;;;;;;13.43;7.43;;;;;;;;;;5157680;27;20257;-70
2021/03/25 02:42:21;;;;;;;14.45;7.57;;;;;;;;;;5157828;27;20223;-72
2021/03/25 02:44:49;;;;;;;12.43;6.25;;;;;;;;;;5158058;27;21040;-71
2021/03/25 02:47:16;;;;;;;14.23;7.40;;;;;;;;;;5157828;27;20260;-70
2021/03/25 02:49:45;;;;;;;12.15;6.70;;;;;;;;;;5156610;27;20543;-71
2021/03/25 02:52:14;;;;;;;11.77;6.53;;;;;;;;;;5157709;27;20200;-70
2021/03/25 02:54:40;;;;;;;13.57;6.78;;;;;;;;;;5157848;27;20534;-70
2021/03/25 02:57:09;;;;;;;8.97;5.60;;;;;;;;;;5146020;27;20198;-71
2021/03/25 02:59:36;;;;;;;26.17;7.10;;;;;;;;;;5136800;27;20446;-70
2021/03/25 03:02:04;;;;;;;12.23;6.50;;;;;;;;;;5136757;27;20210;-71
2021/03/25 03:04:31;;;;;;;12.60;7.90;;;;;;;;;;5137323;27;20607;-71
2021/03/25 03:07:01;;;;;;;13.32;6.40;;;;;;;;;;5136925;27;20201;-70
2021/03/25 03:09:29;;;;;;;16.13;6.90;;;;;;;;;;5136284;27;20205;-72
2021/03/25 03:11:56;;;;;;;12.40;6.70;;;;;;;;;;5136975;27;20235;-72
2021/03/25 03:14:26;;;;;;;10.95;7.40;;;;;;;;;;5136847;27;20237;-70
2021/03/25 03:16:54;;;;;;;11.52;7.45;;;;;;;;;;5136866;27;20695;-71
2021/03/25 03:19:22;;;;;;;10.80;6.57;;;;;;;;;;5136721;27;20620;-69
2021/03/25 03:21:51;;;;;;;17.33;6.95;;;;;;;;;;5136170;27;20305;-70
2021/03/25 03:24:18;;;;;;;9.20;5.65;;;;;;;;;;5136477;27;20756;-71
2021/03/25 03:26:46;;;;;;;9.18;6.15;;;;;;;;;;5156218;27;20196;-71
2021/03/25 03:29:12;;;;;;;9.77;6.20;;;;;;;;;;5156861;27;20205;-71
2021/03/25 03:31:39;;;;;;;8.82;6.35;;;;;;;;;;5156636;27;20276;-69
2021/03/25 03:34:07;;;;;;;12.35;6.78;;;;;;;;;;5156674;27;20209;-72
2021/03/25 03:36:34;;;;;;;10.18;6.70;;;;;;;;;;5156780;27;20233;-70
2021/03/25 03:39:01;;;;;;;8.68;5.75;;;;;;;;;;5156745;27;20263;-72
2021/03/25 03:41:30;;;;;;;13.75;6.35;;;;;;;;;;5156847;27;20196;-70
2021/03/25 03:43:59;;;;;;;16.23;5.70;;;;;;;;;;5157055;27;20274;-72
2021/03/25 03:46:26;;;;;;;11.80;7.05;;;;;;;;;;5156387;27;20254;-71
2021/03/25 03:48:56;;;;;;;10.40;6.47;;;;;;;;;;5156299;27;20253;-70
2021/03/25 03:51:24;;;;;;;12.93;7.40;;;;;;;;;;5156562;27;20188;-71
2021/03/25 03:53:50;;;;;;;10.73;5.88;;;;;;;;;;5156903;27;20279;-73
2021/03/25 03:56:21;;;;;;;9.70;5.87;;;;;;;;;;5156533;27;20622;-71
2021/03/25 03:58:51;;;;;;;13.10;6.05;;;;;;;;;;5156470;27;20535;-69
2021/03/25 04:01:22;;;;;;;15.65;7.20;;;;;;;;;;5156446;27;20186;-71
2021/03/25 04:03:49;;;;;;;15.25;6.20;;;;;;;;;;5156327;27;20270;-69
2021/03/25 04:06:17;;;;;;;13.73;6.53;;;;;;;;;;5156376;27;20654;-71
2021/03/25 04:08:48;;;;;;;15.55;8.35;;;;;;;;;;5156453;27;20202;-71
2021/03/25 04:11:16;;;;;;;11.15;6.70;;;;;;;;;;5156307;27;20191;-71
2021/03/25 04:13:43;;;;;;;15.38;7.18;;;;;;;;;;5156023;27;20196;-71
2021/03/25 04:16:11;;;;;;;12.25;6.70;;;;;;;;;;5150958;27;20265;-71
2021/03/25 04:18:40;;;;;;;13.40;7.10;;;;;;;;;;5135387;27;20239;-71
2021/03/25 04:21:08;;;;;;;14.35;7.50;;;;;;;;;;5134534;27;20205;-70
2021/03/25 04:23:37;;;;;;;13.13;7.28;;;;;;;;;;5134761;27;20211;-72
2021/03/25 04:26:07;;;;;;;11.63;8.27;;;;;;;;;;5135382;27;20189;-71
2021/03/25 04:28:35;;;;;;;13.68;6.95;;;;;;;;;;5135047;27;20283;-70
2021/03/25 04:31:01;;;;;;;12.75;7.07;;;;;;;;;;5134989;27;20189;-70
2021/03/25 04:33:29;;;;;;;12.00;7.28;;;;;;;;;;5134917;27;20599;-71
2021/03/25 04:35:55;;;;;;;10.85;6.93;;;;;;;;;;5134836;27;20270;-70
2021/03/25 04:38:23;;;;;;;20.65;7.85;;;;;;;;;;5134954;27;20532;-70
2021/03/25 04:40:49;;;;;;;12.50;7.00;;;;;;;;;;5134820;27;20188;-70
2021/03/25 04:43:16;;;;;;;11.63;6.10;;;;;;;;;;5134314;27;20253;-72
2021/03/25 04:45:48;;;;;;;16.33;7.55;;;;;;;;;;5134900;27;20271;-72
2021/03/25 04:48:15;;;;;;;11.52;7.05;;;;;;;;;;5154405;27;20687;-69
2021/03/25 04:50:44;;;;;;;15.73;7.90;;;;;;;;;;5155234;27;20270;-71
2021/03/25 04:53:23;;;;;;;14.35;7.00;;;;;;;;;;5155413;27;20242;-71
2021/03/25 04:55:49;;;;;;;14.02;7.78;;;;;;;;;;5155924;27;20277;-72
2021/03/25 04:58:21;;;;;;;17.50;8.43;;;;;;;;;;5153189;27;20194;-71
2021/03/25 05:00:47;;;;;;;11.55;6.85;;;;;;;;;;5155138;27;20223;-72
2021/03/25 05:03:16;;;;;;;11.70;6.17;;;;;;;;;;5154599;27;20309;-71
2021/03/25 05:05:43;;;;;;;11.00;6.50;;;;;;;;;;5148673;27;20545;-70
2021/03/25 05:08:10;;;;;;;14.55;7.03;;;;;;;;;;5146321;27;20244;-71
2021/03/25 05:10:39;;;;;;;13.07;6.65;;;;;;;;;;5155200;27;20657;-71
2021/03/25 05:13:06;;;;;;;12.65;6.20;;;;;;;;;;5155174;27;20605;-69
2021/03/25 05:15:33;;;;;;;9.10;6.10;;;;;;;;;;5155054;27;20604;-71
2021/03/25 05:18:10;;;;;;;15.52;8.20;;;;;;;;;;5155125;27;20260;-72
2021/03/25 05:20:39;;;;;;;8.45;5.97;;;;;;;;;;5154842;27;20259;-72
2021/03/25 05:23:08;;;;;;;14.60;7.47;;;;;;;;;;5154854;27;20201;-70
2021/03/25 05:25:36;;;;;;;13.38;7.10;;;;;;;;;;5155305;27;20211;-70
2021/03/25 05:28:06;;;;;;;10.20;7.88;;;;;;;;;;5155276;27;20218;-70
2021/03/25 05:30:34;;;;;;;9.73;7.28;;;;;;;;;;5155204;27;20666;-71
2021/03/25 05:33:01;;;;;;;18.13;7.72;;;;;;;;;;5154477;27;20264;-71
2021/03/25 05:35:30;;;;;;;15.27;7.55;;;;;;;;;;5154712;27;20545;-70
2021/03/25 05:37:56;;;;;;;16.13;7.75;;;;;;;;;;5154333;27;20263;-69
2021/03/25 05:40:24;;;;;;;14.17;7.37;;;;;;;;;;5154225;27;20203;-71
2021/03/25 05:42:54;;;;;;;18.77;7.43;;;;;;;;;;5154523;27;20457;-70
2021/03/25 05:45:38;;;;;;;15.02;7.65;;;;;;;;;;5154940;27;20223;-71
2021/03/25 05:48:10;;;;;;;13.35;7.35;;;;;;;;;;5155094;27;20571;-71
2021/03/25 05:50:40;;;;;;;18.13;6.72;;;;;;;;;;5155169;27;20220;-70
2021/03/25 05:53:17;;;;;;;12.48;7.57;;;;;;;;;;5155249;27;20215;-71
2021/03/25 05:55:50;;;;;;;11.15;6.70;;;;;;;;;;5154785;27;20269;-71
2021/03/25 05:58:18;;;;;;;9.30;6.65;;;;;;;;;;5154650;27;20275;-71
2021/03/25 06:00:47;;;;;;;13.10;7.63;;;;;;;;;;5154863;27;20573;-69
2021/03/25 06:03:15;;;;;;;13.50;7.00;;;;;;;;;;5154879;27;20584;-69
2021/03/25 06:05:42;;;;;;;12.75;6.68;;;;;;;;;;5146362;27;20209;-70
2021/03/25 06:08:28;;;;;;;12.98;7.80;;;;;;;;;;5152754;27;20243;-71
2021/03/25 06:11:01;;;;;;;19.42;8.40;;;;;;;;;;5146080;27;20209;-70
2021/03/25 06:13:34;;;;;;;13.35;7.75;;;;;;;;;;5152896;27;20229;-71
2021/03/25 06:16:12;;;;;;;12.85;8.23;;;;;;;;;;5154577;27;20589;-71
2021/03/25 06:18:50;;;;;;;11.95;7.85;;;;;;;;;;5154748;27;20552;-70
2021/03/25 06:21:19;;;;;;;11.70;7.20;;;;;;;;;;5154486;27;20218;-71
2021/03/25 06:23:55;;;;;;;12.45;7.10;;;;;;;;;;5154162;27;20221;-70
2021/03/25 06:26:34;;;;;;;21.83;9.00;;;;;;;;;;5154095;27;20233;-71
2021/03/25 06:29:03;;;;;;;16.98;8.95;;;;;;;;;;5154068;27;20666;-70
2021/03/25 06:31:41;;;;;;;14.55;7.70;;;;;;;;;;5153924;27;20194;-72
2021/03/25 06:34:10;;;;;;;14.57;7.38;;;;;;;;;;5141010;27;20194;-71
2021/03/25 06:36:43;;;;;;;14.30;8.05;;;;;;;;;;5132691;28;20325;-73
2021/03/25 06:39:14;;;;;;;13.52;7.97;;;;;;;;;;5133194;28;20195;-71
2021/03/25 06:41:45;;;;;;;17.90;9.20;;;;;;;;;;5133785;28;20270;-69
2021/03/25 06:44:14;;;;;;;12.27;7.75;;;;;;;;;;5133055;27;20530;-70
2021/03/25 06:46:42;;;;;;;17.83;8.45;;;;;;;;;;5140793;27;20209;-72
2021/03/25 06:49:16;;;;;;;13.35;8.02;;;;;;;;;;5153279;27;20659;-71
2021/03/25 06:51:42;;;;;;;14.20;9.93;;;;;;;;;;5139775;27;20202;-71
2021/03/25 06:54:09;;;;;;;19.73;9.45;;;;;;;;;;5139712;27;20208;-70
2021/03/25 06:56:38;;;;;;;16.40;9.13;;;;;;;;;;5157668;27;20270;-72
2021/03/25 06:59:08;;;;;;;18.58;10.48;;;;;;;;;;5157654;27;20256;-71
2021/03/25 07:01:35;;;;;;;15.45;9.35;;;;;;;;;;5157099;27;20182;-71
2021/03/25 07:04:03;;;;;;;17.23;9.65;;;;;;;;;;5157188;27;20266;-70
2021/03/25 07:06:31;;;;;;;22.73;10.07;;;;;;;;;;5157422;27;20237;-69
2021/03/25 07:08:58;;;;;;;18.00;9.93;;;;;;;;;;5158077;27;20255;-69
2021/03/25 07:11:27;;;;;;;29.58;10.27;;;;;;;;;;5156617;27;20292;-72
2021/03/25 07:13:56;;;;;;;23.55;9.45;;;;;;;;;;5156824;27;20285;-71
2021/03/25 07:16:23;;;;;;;16.48;10.13;;;;;;;;;;5152026;27;20225;-70
2021/03/25 07:18:57;;;;;;;23.55;9.10;;;;;;;;;;5135850;27;20212;-69
2021/03/25 07:21:28;;;;;;;21.90;9.55;;;;;;;;;;5135771;27;20202;-71
2021/03/25 07:23:54;;;;;;;18.50;9.98;;;;;;;;;;5136119;27;20215;-70
2021/03/25 07:26:22;;;;;;;19.55;9.15;;;;;;;;;;5136407;27;20269;-71
2021/03/25 07:29:01;;;;;;;15.52;9.35;;;;;;;;;;5135741;27;20213;-70
2021/03/25 07:31:29;;;;;;;15.50;7.95;;;;;;;;;;5146542;27;20623;-69
2021/03/25 07:33:55;;;;;;;16.45;8.32;;;;;;;;;;5156542;27;20193;-71
2021/03/25 07:36:21;;;;;;;14.80;9.70;;;;;;;;;;5156351;27;20230;-69
2021/03/25 07:38:48;;;;;;;15.52;8.77;;;;;;;;;;5156198;27;20182;-69
2021/03/25 07:41:17;;;;;;;11.18;7.00;;;;;;;;;;5157415;27;20204;-68
2021/03/25 07:43:51;;;;;;;16.80;8.65;;;;;;;;;;5156613;27;20312;-71
2021/03/25 07:46:22;;;;;;;17.45;8.43;;;;;;;;;;5156750;27;20236;-70
2021/03/25 07:49:00;;;;;;;11.95;7.88;;;;;;;;;;5157115;27;20183;-71
2021/03/25 07:51:27;;;;;;;16.00;8.60;;;;;;;;;;5156312;27;20552;-70
2021/03/25 07:54:08;;;;;;;20.00;9.02;;;;;;;;;;5155743;27;20202;-72
2021/03/25 07:56:34;;;;;;;16.25;8.10;;;;;;;;;;5137319;27;20201;-71
2021/03/25 07:59:00;;;;;;;18.57;9.00;;;;;;;;;;5135209;27;20647;-70
2021/03/25 08:01:26;;;;;;;16.52;8.13;;;;;;;;;;5135283;27;20903;-70
2021/03/25 08:03:53;;;;;;;15.07;7.13;;;;;;;;;;5135979;27;20211;-71
2021/03/25 08:06:22;;;;;;;12.23;7.60;;;;;;;;;;5134958;27;20507;-69
2021/03/25 08:08:58;;;;;;;16.50;8.75;;;;;;;;;;5135082;27;20192;-70
2021/03/25 08:11:24;;;;;;;16.05;9.13;;;;;;;;;;5145274;27;20619;-71
2021/03/25 08:13:53;;;;;;;14.85;9.05;;;;;;;;;;5156078;27;20248;-70
2021/03/25 08:16:20;;;;;;;13.75;7.75;;;;;;;;;;5155828;27;20799;-71
2021/03/25 08:19:17;;;;;;;12.30;8.00;;;;;;;;;;5155497;27;20201;-71
2021/03/25 08:21:49;;;;;;;28.65;10.60;;;;;;;;;;5097698;27;20201;-71
2021/03/25 08:24:37;;;;;;;19.00;8.88;;;;;;;;;;5156118;27;20997;-71
2021/03/25 08:27:10;;;;;;;15.63;8.43;;;;;;;;;;5155489;27;20653;-71
2021/03/25 08:29:40;;;;;;;11.40;8.38;;;;;;;;;;5154862;27;20544;-72
2021/03/25 08:32:12;;;;;;;16.65;8.65;;;;;;;;;;5155450;27;20184;-69
2021/03/25 08:34:52;;;;;;;12.63;8.35;;;;;;;;;;5155818;27;20547;-70
2021/03/25 08:37:28;;;;;;;19.65;9.63;;;;;;;;;;5155056;27;20232;-69
2021/03/25 08:39:57;;;;;;;19.13;10.30;;;;;;;;;;5153603;27;20242;-70
2021/03/25 08:42:26;;;;;;;23.63;11.50;;;;;;;;;;5134380;27;20660;-71
2021/03/25 08:44:56;;;;;;;24.20;9.13;;;;;;;;;;5134794;27;20183;-69
2021/03/25 08:47:26;;;;;;;19.65;11.70;;;;;;;;;;5134328;27;20202;-70
2021/03/25 08:49:56;;;;;;;27.55;11.63;;;;;;;;;;5134131;27;20198;-72
2021/03/25 08:52:27;;;;;;;25.00;10.32;;;;;;;;;;5134104;27;20209;-70
2021/03/25 08:54:59;;;;;;;23.17;11.05;;;;;;;;;;5134619;27;20202;-71
2021/03/25 08:57:28;;;;;;;20.77;11.70;;;;;;;;;;5134376;27;20198;-72
2021/03/25 09:00:01;;;;;;;29.67;12.60;;;;;;;;;;5134191;27;20209;-70
2021/03/25 09:02:32;;;;;;;18.30;10.70;;;;;;;;;;5134120;27;20215;-70
2021/03/25 09:05:06;;;;;;;21.50;12.23;;;;;;;;;;5134444;27;20238;-70
2021/03/25 09:07:33;;;;;;;23.42;11.65;;;;;;;;;;5133969;27;20628;-72
2021/03/25 09:10:02;;;;;;;29.77;11.27;;;;;;;;;;5144202;27;20647;-71
2021/03/25 09:12:31;;;;;;;25.30;12.35;;;;;;;;;;5155190;27;20634;-69
2021/03/25 09:14:58;;;;;;;22.15;10.05;;;;;;;;;;5155620;27;20239;-70
2021/03/25 09:17:25;;;;;;;22.75;11.05;;;;;;;;;;5140643;27;20190;-69
2021/03/25 09:19:52;;;;;;;25.20;12.88;;;;;;;;;;5134076;27;20326;-71
2021/03/25 09:22:39;;;;;;;15.88;9.82;;;;;;;;;;5134188;27;20719;-70
2021/03/25 09:25:32;;;;;;;21.23;11.77;;;;;;;;;;5134322;27;20194;-72
2021/03/25 09:28:00;;;;;;;30.90;12.25;;;;;;;;;;5134309;27;20259;-70
2021/03/25 09:30:31;;;;;;;22.73;13.57;;;;;;;;;;5133863;27;20313;-70
2021/03/25 09:33:12;;;;;;;31.52;13.43;;;;;;;;;;5133507;27;20206;-72
2021/03/25 09:35:44;;;;;;;31.30;13.68;;;;;;;;;;5148165;27;20222;-72
2021/03/25 09:38:24;;;;;;;36.65;13.32;;;;;;;;;;5134118;27;20205;-68
2021/03/25 09:40:52;;;;;;;28.27;11.15;;;;;;;;;;5134120;28;20214;-72
2021/03/25 09:43:45;;;;;;;25.50;12.90;;;;;;;;;;5133752;28;20202;-70
2021/03/25 09:46:33;;;;;;;30.17;12.80;;;;;;;;;;5133998;28;20613;-71
2021/03/25 09:49:14;;;;;;;23.25;12.82;;;;;;;;;;5133688;27;20202;-70
2021/03/25 09:51:41;;;;;;;28.10;11.20;;;;;;;;;;5133625;28;20179;-70
2021/03/25 09:54:18;;;;;;;28.60;13.32;;;;;;;;;;5133760;27;20221;-70
2021/03/25 09:56:45;;;;;;;24.42;11.70;;;;;;;;;;5133641;28;20209;-71
2021/03/25 09:59:26;;;;;;;27.25;13.20;;;;;;;;;;5133477;27;20218;-70
2021/03/25 10:01:56;;;;;;;21.00;10.63;;;;;;;;;;5133506;28;20573;-70
2021/03/25 10:04:27;;;;;;;18.45;10.00;;;;;;;;;;5133876;28;20830;-70
2021/03/25 10:06:59;;;;;;;19.58;11.77;;;;;;;;;;5133666;28;20203;-70
2021/03/25 10:09:44;;;;;;;26.05;11.70;;;;;;;;;;5143537;27;20205;-70
2021/03/25 10:12:11;;;;;;;29.23;13.45;;;;;;;;;;5154729;27;20613;-71
2021/03/25 10:14:46;;;;;;;22.85;11.70;;;;;;;;;;5154311;27;20617;-72
2021/03/25 10:17:42;;;;;;;27.63;14.07;;;;;;;;;;5154530;27;20629;-70
2021/03/25 10:20:10;;;;;;;17.92;9.75;;;;;;;;;;5071923;28;20314;-71
2021/03/25 10:22:36;;;;;;;20.67;12.25;;;;;;;;;;5139168;27;20309;-69
2021/03/25 10:25:01;;;;;;;34.47;13.43;;;;;;;;;;5158247;27;21011;-74
2021/03/25 10:27:32;;;;;;;28.08;14.07;;;;;;;;;;5157852;27;20434;-70
2021/03/25 10:30:03;;;;;;;23.52;12.85;;;;;;;;;;5153020;27;20183;-69
2021/03/25 10:32:31;;;;;;;28.77;12.98;;;;;;;;;;5137478;27;20202;-70
2021/03/25 10:34:59;;;;;;;31.25;14.50;;;;;;;;;;5137545;27;20212;-70
2021/03/25 10:37:29;;;;;;;25.65;12.25;;;;;;;;;;5137170;27;20656;-70
2021/03/25 10:39:59;;;;;;;27.50;12.13;;;;;;;;;;5143314;27;20556;-70
2021/03/25 10:42:27;;;;;;;26.02;13.38;;;;;;;;;;5157965;27;20652;-71
2021/03/25 10:44:54;;;;;;;26.70;12.82;;;;;;;;;;5156455;27;20234;-70
2021/03/25 10:47:21;;;;;;;22.73;12.73;;;;;;;;;;5157954;27;20195;-70
2021/03/25 10:49:49;;;;;;;23.63;11.27;;;;;;;;;;5158040;27;20511;-70
2021/03/25 10:52:17;;;;;;;21.83;11.50;;;;;;;;;;5157927;27;20279;-71
2021/03/25 10:54:43;;;;;;;20.80;10.18;;;;;;;;;;5156015;27;20201;-71
2021/03/25 10:57:15;;;;;;;22.77;10.60;;;;;;;;;;5148035;27;20202;-71
2021/03/25 10:59:47;;;;;;;13.88;7.70;;;;;;;;;;5136847;27;20211;-71
2021/03/25 11:02:19;;;;;;;18.77;8.90;;;;;;;;;;5151611;27;20581;-71
2021/03/25 11:04:44;;;;;;;15.63;8.20;;;;;;;;;;5141383;27;20232;-72
2021/03/25 11:07:11;;;;;;;18.47;10.13;;;;;;;;;;5156228;27;20674;-70
2021/03/25 11:09:37;;;;;;;11.02;5.47;;;;;;;;;;5156823;27;20438;-70
2021/03/25 11:12:07;;;;;;;16.20;8.48;;;;;;;;;;5157162;27;20190;-71
2021/03/25 11:14:35;;;;;;;14.50;7.80;;;;;;;;;;5156788;27;20673;-70
2021/03/25 11:17:02;;;;;;;11.65;7.50;;;;;;;;;;5156952;27;20202;-70
2021/03/25 11:19:30;;;;;;;20.00;8.70;;;;;;;;;;5156892;27;20215;-71
2021/03/25 11:21:56;;;;;;;18.67;8.52;;;;;;;;;;5157670;27;20187;-69
2021/03/25 11:24:24;;;;;;;17.80;8.25;;;;;;;;;;5156489;27;20218;-70
2021/03/25 11:26:53;;;;;;;18.92;9.32;;;;;;;;;;5156891;27;20215;-70
2021/03/25 11:29:20;;;;;;;22.08;7.80;;;;;;;;;;5156811;27;20199;-71
2021/03/25 11:31:46;;;;;;;18.55;9.20;;;;;;;;;;5141840;27;20199;-70
2021/03/25 11:34:23;;;;;;;14.93;9.80;;;;;;;;;;5138853;27;20191;-71
2021/03/25 11:36:50;;;;;;;14.65;8.30;;;;;;;;;;5153729;27;20477;-69
2021/03/25 11:39:24;;;;;;;22.25;11.05;;;;;;;;;;5140267;27;20201;-70
2021/03/25 11:41:52;;;;;;;19.05;10.35;;;;;;;;;;5150303;27;20621;-70
2021/03/25 11:44:34;;;;;;;14.48;8.38;;;;;;;;;;5135634;27;20204;-71
2021/03/25 11:47:15;;;;;;;16.52;8.13;;;;;;;;;;5143274;27;20204;-71
2021/03/25 11:49:41;;;;;;;16.20;7.65;;;;;;;;;;5155866;27;20200;-72
2021/03/25 11:52:12;;;;;;;14.18;7.85;;;;;;;;;;5156095;27;20201;-73
2021/03/25 11:54:39;;;;;;;12.65;7.60;;;;;;;;;;5156671;27;20597;-71
2021/03/25 11:57:07;;;;;;;19.00;9.18;;;;;;;;;;5155639;27;20183;-69
2021/03/25 11:59:36;;;;;;;16.67;8.00;;;;;;;;;;5156240;27;20224;-70
2021/03/25 12:02:26;;;;;;;16.42;7.07;;;;;;;;;;5156036;27;20200;-71
2021/03/25 12:04:52;;;;;;;15.60;8.10;;;;;;;;;;5155804;27;20617;-71
2021/03/25 12:07:20;;;;;;;11.35;6.05;;;;;;;;;;5155938;27;20243;-70
2021/03/25 12:10:04;;;;;;;13.20;6.25;;;;;;;;;;5156208;27;20222;-69
2021/03/25 12:12:30;;;;;;;14.00;7.50;;;;;;;;;;5154416;27;20253;-72
2021/03/25 12:14:56;;;;;;;12.45;6.28;;;;;;;;;;5156768;27;20563;-71
2021/03/25 12:17:22;;;;;;;16.58;6.68;;;;;;;;;;5156461;27;20200;-70
2021/03/25 12:19:48;;;;;;;17.17;7.95;;;;;;;;;;5156308;27;20277;-69
2021/03/25 12:22:15;;;;;;;11.63;7.70;;;;;;;;;;5155974;27;20200;-69
2021/03/25 12:24:42;;;;;;;17.40;6.70;;;;;;;;;;5156196;27;20419;-72
2021/03/25 12:27:11;;;;;;;9.82;6.95;;;;;;;;;;5156158;27;20244;-71
2021/03/25 12:29:37;;;;;;;14.63;7.75;;;;;;;;;;5154352;27;20208;-71
2021/03/25 12:32:03;;;;;;;12.87;8.07;;;;;;;;;;5134986;27;20618;-70
2021/03/25 12:34:29;;;;;;;20.38;8.00;;;;;;;;;;5135067;27;20758;-69
2021/03/25 12:36:55;;;;;;;17.50;7.35;;;;;;;;;;5134757;27;20236;-70
2021/03/25 12:39:21;;;;;;;12.80;7.43;;;;;;;;;;5135016;27;20193;-70
2021/03/25 12:41:51;;;;;;;13.48;6.95;;;;;;;;;;5134864;27;20539;-71
2021/03/25 12:44:16;;;;;;;15.80;7.70;;;;;;;;;;5133650;27;20221;-71
2021/03/25 12:46:43;;;;;;;8.90;6.07;;;;;;;;;;5134753;27;20237;-70
2021/03/25 12:49:09;;;;;;;15.68;6.57;;;;;;;;;;5134549;27;20427;-70
2021/03/25 12:51:35;;;;;;;10.68;5.20;;;;;;;;;;5134666;27;20601;-70
2021/03/25 12:54:01;;;;;;;9.30;4.45;;;;;;;;;;5134356;27;20260;-70
2021/03/25 12:56:28;;;;;;;9.93;5.65;;;;;;;;;;5134288;27;20668;-73
2021/03/25 12:58:55;;;;;;;11.13;5.50;;;;;;;;;;5136420;27;20205;-71
2021/03/25 13:01:22;;;;;;;12.13;4.47;;;;;;;;;;5142051;27;20222;-70
2021/03/25 13:03:49;;;;;;;8.30;5.05;;;;;;;;;;5133585;27;20224;-70
2021/03/25 13:06:15;;;;;;;10.27;5.35;;;;;;;;;;5134095;27;20640;-71
2021/03/25 13:08:41;;;;;;;7.85;4.93;;;;;;;;;;5133509;27;20301;-70
2021/03/25 13:11:08;;;;;;;7.55;4.43;;;;;;;;;;5133876;27;20206;-71
2021/03/25 13:13:34;;;;;;;5.60;4.63;;;;;;;;;;5133450;27;20239;-69
2021/03/25 13:16:01;;;;;;;17.33;7.00;;;;;;;;;;5133918;27;20745;-72
2021/03/25 13:18:28;;;;;;;9.75;5.30;;;;;;;;;;5133753;27;20235;-70
2021/03/25 13:20:54;;;;;;;8.10;4.50;;;;;;;;;;5140143;27;20280;-70
2021/03/25 13:23:21;;;;;;;9.25;6.07;;;;;;;;;;5133704;27;20661;-70
2021/03/25 13:25:47;;;;;;;7.22;4.75;;;;;;;;;;5137640;27;20527;-71
2021/03/25 13:28:14;;;;;;;7.05;4.90;;;;;;;;;;5153962;27;20231;-70
2021/03/25 13:30:41;;;;;;;10.57;4.97;;;;;;;;;;5154128;27;20298;-70
2021/03/25 13:33:08;;;;;;;10.07;5.95;;;;;;;;;;5153943;27;20198;-72
2021/03/25 13:35:35;;;;;;;10.13;5.25;;;;;;;;;;5153716;27;20318;-70
2021/03/25 13:38:01;;;;;;;8.23;5.03;;;;;;;;;;5154054;27;20286;-70
2021/03/25 13:40:29;;;;;;;4.18;2.70;;;;;;;;;;5153897;27;20287;-70
2021/03/25 13:42:54;;;;;;;9.95;6.22;;;;;;;;;;5153870;27;20216;-72
2021/03/25 13:45:21;;;;;;;6.13;3.60;;;;;;;;;;5153776;27;20272;-72
2021/03/25 13:47:47;;;;;;;7.50;4.00;;;;;;;;;;5154246;27;20427;-70
2021/03/25 13:50:15;;;;;;;9.60;5.07;;;;;;;;;;5153992;27;20201;-71
2021/03/25 13:52:42;;;;;;;8.35;3.95;;;;;;;;;;5153351;27;20484;-71
2021/03/25 13:55:08;;;;;;;7.20;4.82;;;;;;;;;;5156130;27;20219;-72
2021/03/25 13:57:34;;;;;;;8.45;4.45;;;;;;;;;;5158657;27;20209;-71
2021/03/25 14:00:01;;;;;;;7.77;4.67;;;;;;;;;;5158897;27;20185;-70
2021/03/25 14:02:27;;;;;;;7.45;3.85;;;;;;;;;;5158495;27;20423;-70
2021/03/25 14:04:53;;;;;;;4.80;3.05;;;;;;;;;;5158166;27;20334;-71
2021/03/25 14:07:19;;;;;;;12.07;2.42;;;;;;;;;;5158544;27;20181;-70
2021/03/25 14:09:45;;;;;;;4.90;2.80;;;;;;;;;;5158054;27;20201;-69
2021/03/25 14:12:11;;;;;;;4.30;2.90;;;;;;;;;;5158341;27;20588;-69
2021/03/25 14:14:37;;;;;;;3.90;2.65;;;;;;;;;;5158463;27;20985;-71
2021/03/25 14:17:04;;;;;;;4.60;2.83;;;;;;;;;;5158320;27;20226;-71
2021/03/25 14:19:30;;;;;;;3.55;1.95;;;;;;;;;;5157871;27;20515;-73
2021/03/25 14:21:56;;;;;;;6.05;3.00;;;;;;;;;;5152887;27;20282;-70
2021/03/25 14:24:23;;;;;;;7.40;3.20;;;;;;;;;;5148846;27;20202;-71
2021/03/25 14:26:48;;;;;;;5.82;2.72;;;;;;;;;;5157019;27;20770;-70
2021/03/25 14:29:14;;;;;;;5.33;2.33;;;;;;;;;;5158229;27;20218;-71
2021/03/25 14:31:40;;;;;;;5.88;3.72;;;;;;;;;;5139339;27;20444;-70
2021/03/25 14:34:06;;;;;;;5.90;3.30;;;;;;;;;;5158035;27;20228;-72
2021/03/25 14:36:33;;;;;;;10.70;2.80;;;;;;;;;;5155181;27;20506;-70
2021/03/25 14:38:59;;;;;;;4.68;2.30;;;;;;;;;;5139729;27;20190;-72
2021/03/25 14:41:25;;;;;;;5.10;2.92;;;;;;;;;;5136741;27;20198;-70
2021/03/25 14:43:52;;;;;;;6.15;2.45;;;;;;;;;;5136714;27;20309;-71